Time;durP1;ratioP1;P1;durP2;ratioP2;P2;SDS_P1;SDS_P2;PMS_P1;PMS_P2;Temp;Humidity;BMP_temperature;BMP_pressure;BME280_temperature;BME280_humidity;BME280_pressure;Samples;Min_cycle;Max_cycle;Signal;HPM_P1;HPM_P2
2022/06/18 00:00:21;;;;;;;2.72;1.08;;;;;;;16.58;41.36;101587.41;4952742;28;20050;-85
2022/06/18 00:02:46;;;;;;;1.88;0.85;;;;;;;16.49;41.28;101575.56;4966768;28;20127;-83
2022/06/18 00:05:15;;;;;;;2.05;1.40;;;;;;;16.46;41.44;101572.22;4952232;28;20362;-81
2022/06/18 00:07:45;;;;;;;3.85;1.10;;;;;;;16.40;41.90;101576.91;4967681;28;20054;-82
2022/06/18 00:10:22;;;;;;;2.45;1.20;;;;;;;16.32;41.92;101567.69;4952583;28;20046;-84
2022/06/18 00:15:35;;;;;;;2.00;1.23;;;;;;;16.25;42.05;101564.53;4988424;28;20440;-81
2022/06/18 00:18:02;;;;;;;2.97;1.20;;;;;;;16.23;41.80;101555.84;4977139;28;20100;-85
2022/06/18 00:20:32;;;;;;;3.35;1.50;;;;;;;16.23;42.14;101560.28;4962661;28;20043;-84
2022/06/18 00:23:01;;;;;;;3.67;1.73;;;;;;;16.24;41.94;101551.41;4968720;28;20042;-85
2022/06/18 00:25:32;;;;;;;2.55;1.52;;;;;;;16.21;42.24;101555.06;4968157;28;20664;-82
2022/06/18 00:27:59;;;;;;;3.40;1.75;;;;;;;16.19;42.06;101546.38;4966179;28;20054;-83
2022/06/18 00:30:28;;;;;;;2.50;1.35;;;;;;;16.20;41.98;101546.31;4967678;28;20094;-81
2022/06/18 00:32:54;;;;;;;2.05;1.70;;;;;;;16.28;42.23;101543.25;4949745;28;20062;-81
2022/06/18 00:35:20;;;;;;;2.85;1.58;;;;;;;16.22;42.10;101543.59;4961880;28;20038;-84
2022/06/18 00:37:47;;;;;;;2.78;1.35;;;;;;;16.21;42.13;101541.88;4965396;28;20059;-85
2022/06/18 00:40:25;;;;;;;3.53;2.20;;;;;;;16.19;42.25;101544.59;4962153;28;20049;-85
2022/06/18 00:42:50;;;;;;;2.22;1.73;;;;;;;16.21;42.44;101536.59;4982010;28;20053;-80
2022/06/18 00:45:23;;;;;;;4.43;1.50;;;;;;;16.21;42.14;101539.25;4970151;28;20030;-83
2022/06/18 00:48:07;;;;;;;2.55;1.63;;;;;;;16.15;42.02;101527.25;4963305;28;20112;-80
2022/06/18 00:50:42;;;;;;;1.67;1.00;;;;;;;16.16;42.19;101518.41;4983275;28;20069;-83
2022/06/18 00:53:14;;;;;;;4.20;1.67;;;;;;;16.14;42.35;101515.00;4964638;28;20062;-84
2022/06/18 00:55:47;;;;;;;4.85;2.00;;;;;;;16.16;42.35;101522.81;4956300;28;20035;-84
2022/06/18 00:58:33;;;;;;;2.67;2.00;;;;;;;16.16;42.09;101512.28;4950154;28;20071;-84
2022/06/18 01:00:59;;;;;;;2.15;1.73;;;;;;;16.14;42.48;101508.88;4982433;28;20125;-86
2022/06/18 01:03:32;;;;;;;3.58;1.88;;;;;;;16.16;42.48;101504.38;4965961;28;20048;-86
2022/06/18 01:06:10;;;;;;;1.55;1.45;;;;;;;16.17;42.28;101503.41;4981128;28;20062;-84
2022/06/18 01:08:35;;;;;;;6.25;1.77;;;;;;;16.06;42.67;101500.50;4950090;28;20520;-82
2022/06/18 01:11:08;;;;;;;3.28;1.50;;;;;;;16.05;42.64;101499.66;4951526;28;20045;-79
2022/06/18 01:13:37;;;;;;;2.60;2.25;;;;;;;15.73;43.35;101503.97;4986573;28;20114;-84
2022/06/18 01:16:07;;;;;;;5.53;2.15;;;;;;;15.74;43.29;101495.13;4967208;28;20448;-80
2022/06/18 01:18:33;;;;;;;5.70;2.13;;;;;;;15.96;42.81;101500.97;4967687;28;20071;-85
2022/06/18 01:21:40;;;;;;;2.55;1.70;;;;;;;16.08;42.40;101496.00;4966290;28;20090;-81
2022/06/18 01:24:21;;;;;;;4.90;1.98;;;;;;;16.11;42.25;101498.50;4949858;28;20121;-80
2022/06/18 01:26:50;;;;;;;4.80;2.53;;;;;;;16.13;42.46;101502.75;4967246;28;20093;-80
2022/06/18 01:29:16;;;;;;;2.97;1.90;;;;;;;16.15;42.16;101494.72;4967764;28;20412;-81
2022/06/18 01:31:43;;;;;;;3.00;1.95;;;;;;;16.12;42.49;101508.09;4952149;28;20137;-82
2022/06/18 01:34:09;;;;;;;4.28;2.08;;;;;;;16.04;42.75;101503.25;4980709;28;20047;-82
2022/06/18 01:36:39;;;;;;;3.63;2.55;;;;;;;16.08;42.69;101507.41;4951369;28;20570;-84
2022/06/18 01:39:12;;;;;;;4.55;2.15;;;;;;;16.09;42.68;101501.19;4964261;28;20039;-77
2022/06/18 01:41:51;;;;;;;3.38;2.28;;;;;;;16.11;42.67;101494.06;4979283;28;20087;-77
2022/06/18 01:44:40;;;;;;;6.00;3.15;;;;;;;16.06;42.84;101503.16;4966275;28;20401;-84
2022/06/18 01:47:17;;;;;;;2.20;1.98;;;;;;;16.07;42.60;101491.69;4951385;28;20035;-81
2022/06/18 01:49:59;;;;;;;2.83;1.95;;;;;;;16.01;42.86;101487.56;4971432;28;20039;-83
2022/06/18 01:52:33;;;;;;;2.58;1.85;;;;;;;15.95;42.71;101487.84;4969392;28;20125;-83
2022/06/18 01:55:28;;;;;;;3.30;2.33;;;;;;;15.95;42.79;101487.84;4958006;28;20026;-85
2022/06/18 01:58:01;;;;;;;3.03;2.40;;;;;;;15.86;42.97;101485.72;4950919;28;20416;-82
2022/06/18 02:00:28;;;;;;;3.38;2.17;;;;;;;15.80;42.99;101477.19;4951550;28;20045;-84
2022/06/18 02:03:02;;;;;;;2.75;2.47;;;;;;;15.67;43.75;101483.19;4951230;28;20066;-83
2022/06/18 02:05:29;;;;;;;3.05;2.70;;;;;;;15.72;43.48;101475.91;4969138;28;20037;-83
2022/06/18 02:07:55;;;;;;;4.35;2.78;;;;;;;15.70;43.81;101475.13;4976947;28;20123;-82
2022/06/18 02:10:39;;;;;;;3.83;2.05;;;;;;;15.73;43.48;101473.19;4965748;28;20611;-83
2022/06/18 02:13:05;;;;;;;6.82;2.58;;;;;;;15.73;43.66;101464.44;4949287;28;20054;-82
2022/06/18 02:15:40;;;;;;;3.10;2.42;;;;;;;15.70;43.63;101467.22;4960373;28;20314;-82
2022/06/18 02:18:09;;;;;;;4.07;2.08;;;;;;;15.65;43.70;101464.81;4942471;28;20170;-80
2022/06/18 02:20:41;;;;;;;4.90;3.17;;;;;;;15.63;43.92;101460.56;4966567;28;20038;-83
2022/06/18 02:23:07;;;;;;;4.60;2.80;;;;;;;15.64;44.02;101463.13;4964172;28;20125;-84
2022/06/18 02:25:32;;;;;;;4.72;3.28;;;;;;;15.60;44.25;101461.59;4950934;28;20134;-84
2022/06/18 02:28:09;;;;;;;5.85;3.30;;;;;;;15.59;44.26;101454.59;4974363;28;20057;-80
2022/06/18 02:30:36;;;;;;;3.60;3.28;;;;;;;15.62;44.04;101448.31;4965729;28;20030;-83
2022/06/18 02:33:22;;;;;;;5.25;3.58;;;;;;;15.59;44.31;101447.56;4963621;28;20047;-83
2022/06/18 02:35:48;;;;;;;4.10;2.65;;;;;;;15.63;44.16;101444.75;4952150;28;20624;-83
2022/06/18 02:38:20;;;;;;;5.63;2.83;;;;;;;15.55;44.40;101431.97;4949923;28;20045;-80
2022/06/18 02:40:46;;;;;;;10.05;3.97;;;;;;;15.50;44.61;101434.84;4965617;28;20078;-86
2022/06/18 02:43:13;;;;;;;7.57;3.03;;;;;;;15.51;44.50;101436.56;4951016;28;20062;-87
2022/06/18 02:45:39;;;;;;;7.25;3.42;;;;;;;15.42;45.01;101434.41;4955630;28;20073;-81
2022/06/18 02:48:08;;;;;;;4.80;3.33;;;;;;;15.38;45.02;101435.50;4969472;28;20055;-86
2022/06/18 02:50:37;;;;;;;7.30;2.75;;;;;;;15.38;44.83;101444.25;4965469;28;20065;-84
2022/06/18 02:53:03;;;;;;;4.18;2.10;;;;;;;15.38;45.08;101446.03;4969608;28;20031;-82
2022/06/18 02:55:36;;;;;;;5.07;3.65;;;;;;;15.33;45.43;101453.31;4968389;28;20066;-82
2022/06/18 02:58:10;;;;;;;3.85;3.45;;;;;;;15.30;45.90;101451.69;4963508;28;20101;-83
2022/06/18 03:00:38;;;;;;;5.82;4.03;;;;;;;15.27;45.88;101458.91;4966118;28;20037;-83
2022/06/18 03:03:10;;;;;;;9.80;3.53;;;;;;;15.31;45.58;101461.31;4954262;28;20562;-83
2022/06/18 03:05:38;;;;;;;4.35;3.20;;;;;;;15.37;45.72;101471.53;4983756;28;20042;-84
2022/06/18 03:08:04;;;;;;;3.00;2.70;;;;;;;15.42;45.39;101478.34;4945417;28;20042;-84
2022/06/18 03:13:18;;;;;;;7.55;3.47;;;;;;;15.40;45.73;101483.69;4987303;28;20051;-85
2022/06/18 03:15:49;;;;;;;4.50;3.45;;;;;;;15.37;45.41;101482.06;4956335;28;20069;-84
2022/06/18 03:18:18;;;;;;;6.28;2.88;;;;;;;15.37;45.51;101492.59;4950778;28;20066;-84
2022/06/18 03:21:02;;;;;;;4.78;3.38;;;;;;;15.44;45.76;101485.25;4971911;28;20027;-84
2022/06/18 03:23:28;;;;;;;5.22;2.92;;;;;;;15.41;45.62;101485.38;4954189;28;20560;-83
2022/06/18 03:25:56;;;;;;;4.28;3.08;;;;;;;15.34;45.97;101487.47;4952776;28;20042;-81
2022/06/18 03:28:24;;;;;;;4.00;3.03;;;;;;;15.43;45.67;101486.16;4970522;28;20039;-81
2022/06/18 03:30:50;;;;;;;4.05;3.63;;;;;;;15.48;45.76;101489.44;4970138;28;20522;-80
2022/06/18 03:33:16;;;;;;;3.92;3.05;;;;;;;15.49;45.38;101496.38;4971896;28;20043;-84
2022/06/18 03:35:46;;;;;;;6.65;4.55;;;;;;;15.46;45.94;101496.56;4973215;28;20026;-84
2022/06/18 03:38:15;;;;;;;6.50;4.63;;;;;;;15.43;46.34;101493.22;4957548;28;20034;-83
2022/06/18 03:40:43;;;;;;;3.90;3.50;;;;;;;15.46;46.17;101496.56;4958140;28;20678;-83
2022/06/18 03:43:09;;;;;;;4.65;2.75;;;;;;;15.53;45.98;101505.84;4972830;28;20050;-84
2022/06/18 03:45:39;;;;;;;4.88;4.45;;;;;;;15.55;46.45;101501.34;4971869;28;20097;-85
2022/06/18 03:48:06;;;;;;;4.55;3.35;;;;;;;15.58;46.45;101501.19;4966676;28;20054;-84
2022/06/18 03:50:33;;;;;;;4.38;3.97;;;;;;;15.67;46.53;101499.00;4972187;28;20202;-82
2022/06/18 03:52:59;;;;;;;4.03;3.20;;;;;;;15.79;46.53;101501.00;4981399;28;20106;-83
2022/06/18 03:55:25;;;;;;;3.50;3.15;;;;;;;15.91;46.29;101508.28;4956280;28;20073;-84
2022/06/18 03:57:51;;;;;;;3.95;3.00;;;;;;;15.94;46.11;101509.88;4954471;28;20086;-81
2022/06/18 04:00:21;;;;;;;5.70;3.70;;;;;;;15.93;46.41;101498.50;4988722;28;20052;-78
2022/06/18 04:02:53;;;;;;;5.13;3.80;;;;;;;15.98;46.61;101509.66;4965613;28;20089;-83
2022/06/18 04:05:19;;;;;;;5.13;3.88;;;;;;;16.08;46.72;101517.09;4970255;28;20034;-83
2022/06/18 04:07:45;;;;;;;10.25;4.57;;;;;;;16.18;46.61;101515.69;4968706;28;20051;-82
2022/06/18 04:10:31;;;;;;;9.38;5.35;;;;;;;16.23;46.82;101520.72;4968726;28;20142;-82
2022/06/18 04:12:56;;;;;;;11.10;6.22;;;;;;;16.19;46.99;101527.94;4969374;28;20118;-84
2022/06/18 04:15:30;;;;;;;11.05;5.90;;;;;;;16.27;46.59;101546.00;4955299;28;20094;-82
2022/06/18 04:18:04;;;;;;;14.32;6.43;;;;;;;16.30;47.00;101543.19;4967875;28;20039;-82
2022/06/18 04:20:32;;;;;;;8.95;6.22;;;;;;;16.42;46.94;101548.66;4969542;28;20543;-79
2022/06/18 04:23:01;;;;;;;7.55;6.75;;;;;;;16.40;46.95;101547.88;4951581;28;20049;-81
2022/06/18 04:25:28;;;;;;;12.43;7.38;;;;;;;16.35;47.23;101547.28;4954756;28;20035;-83
2022/06/18 04:27:57;;;;;;;8.80;7.60;;;;;;;16.54;47.34;101548.91;4969500;28;20415;-82
2022/06/18 04:30:28;;;;;;;10.15;6.90;;;;;;;16.58;47.44;101550.47;4958734;28;20062;-83
2022/06/18 04:33:00;;;;;;;15.45;8.65;;;;;;;16.75;47.19;101553.03;4955979;28;20034;-84
2022/06/18 04:35:27;;;;;;;12.32;8.45;;;;;;;16.76;47.26;101541.56;4970730;28;20196;-83
2022/06/18 04:38:00;;;;;;;15.50;8.85;;;;;;;16.84;47.45;101538.47;4958853;28;20039;-82
2022/06/18 04:40:39;;;;;;;13.05;11.20;;;;;;;16.75;47.58;101542.47;4971099;28;20039;-85
2022/06/18 04:43:11;;;;;;;20.75;9.82;;;;;;;16.55;48.16;101535.63;4953863;28;20034;-84
2022/06/18 04:45:45;;;;;;;12.75;9.82;;;;;;;16.94;47.80;101525.63;4957340;28;20035;-84
2022/06/18 04:48:16;;;;;;;19.10;10.63;;;;;;;16.52;48.51;101519.13;4955336;28;20035;-79
2022/06/18 04:50:41;;;;;;;13.82;9.52;;;;;;;17.11;47.94;101522.84;4971829;28;20058;-83
2022/06/18 04:53:09;;;;;;;15.65;9.27;;;;;;;17.38;47.09;101519.53;4953054;28;20035;-85
2022/06/18 04:55:35;;;;;;;15.63;9.52;;;;;;;17.62;46.63;101520.75;4986499;28;20310;-80
2022/06/18 04:58:01;;;;;;;15.45;10.05;;;;;;;17.64;46.24;101521.53;4985749;28;20701;-85
2022/06/18 05:00:26;;;;;;;16.98;9.18;;;;;;;17.75;46.28;101512.09;4955320;28;20029;-82
2022/06/18 05:03:18;;;;;;;16.83;10.75;;;;;;;17.92;45.54;101509.28;4969500;28;20042;-81
2022/06/18 05:05:58;;;;;;;16.05;8.80;;;;;;;18.26;45.68;101515.16;4983567;28;20034;-82
2022/06/18 05:08:44;;;;;;;21.60;9.73;;;;;;;19.53;43.46;101507.84;4963987;28;20043;-81
2022/06/18 05:11:35;;;;;;;19.45;9.35;;;;;;;21.05;39.61;101519.16;4965481;28;20488;-81
2022/06/18 05:14:22;;;;;;;22.88;9.45;;;;;;;22.43;36.70;101520.09;4967857;28;20566;-82
2022/06/18 05:16:53;;;;;;;13.95;9.25;;;;;;;23.08;35.32;101518.38;4948853;28;20043;-80
2022/06/18 05:19:23;;;;;;;15.68;8.18;;;;;;;23.88;33.68;101519.63;4949072;28;20081;-83
2022/06/18 05:21:50;;;;;;;17.58;8.45;;;;;;;23.89;32.35;101518.66;4968671;28;20084;-81
2022/06/18 05:24:15;;;;;;;18.80;8.25;;;;;;;23.51;32.65;101510.28;4978714;28;20047;-83
2022/06/18 05:26:48;;;;;;;14.70;7.70;;;;;;;24.23;32.33;101524.53;4954036;28;20042;-80
2022/06/18 05:29:15;;;;;;;17.08;7.22;;;;;;;23.99;32.50;101538.22;4982947;28;20472;-81
2022/06/18 05:31:41;;;;;;;9.13;6.75;;;;;;;23.42;33.88;101543.91;4964834;28;20039;-84
2022/06/18 05:34:07;;;;;;;20.00;6.68;;;;;;;23.77;33.32;101537.41;4971554;28;20039;-82
2022/06/18 05:36:34;;;;;;;9.68;6.40;;;;;;;24.01;32.33;101544.28;4979730;28;20035;-81
2022/06/18 05:39:00;;;;;;;20.52;7.68;;;;;;;24.18;32.92;101548.97;4966354;28;20054;-82
2022/06/18 05:41:27;;;;;;;14.93;5.95;;;;;;;25.43;30.67;101554.66;4955157;28;20042;-81
2022/06/18 05:43:52;;;;;;;11.00;5.97;;;;;;;25.48;31.16;101544.38;4985188;28;20061;-82
2022/06/18 05:46:18;;;;;;;8.85;6.45;;;;;;;25.89;29.51;101544.19;4954133;28;21040;-81
2022/06/18 05:48:45;;;;;;;12.35;5.88;;;;;;;26.69;29.47;101542.69;4968835;28;20161;-82
2022/06/18 05:51:11;;;;;;;13.15;6.88;;;;;;;25.99;28.76;101549.50;4983256;28;20140;-85
2022/06/18 05:53:38;;;;;;;14.25;7.57;;;;;;;25.70;29.28;101555.78;4963985;28;20101;-82
2022/06/18 05:56:38;;;;;;;11.95;7.47;;;;;;;25.99;29.44;101565.56;4974612;28;20034;-82
2022/06/18 05:59:16;;;;;;;12.27;7.00;;;;;;;25.13;30.25;101570.88;4967081;28;20306;-82
2022/06/18 06:01:42;;;;;;;12.68;5.63;;;;;;;25.73;30.35;101576.91;4949202;28;20054;-83
2022/06/18 06:04:09;;;;;;;12.80;6.47;;;;;;;25.91;28.90;101581.50;4948265;28;20077;-83
2022/06/18 06:06:35;;;;;;;12.18;6.38;;;;;;;26.18;29.24;101570.88;4960533;28;20063;-81
2022/06/18 06:09:02;;;;;;;10.90;5.85;;;;;;;26.52;28.22;101564.06;4967050;28;20042;-84
2022/06/18 06:11:32;;;;;;;12.25;5.95;;;;;;;27.11;28.14;101571.59;4968491;28;20039;-82
2022/06/18 06:14:01;;;;;;;10.90;5.20;;;;;;;27.71;27.32;101567.38;4983760;28;20542;-85
2022/06/18 06:16:28;;;;;;;13.13;5.35;;;;;;;28.18;25.33;101572.34;4954816;28;20034;-81
2022/06/18 06:18:59;;;;;;;12.27;4.80;;;;;;;28.15;25.49;101571.84;4966508;28;20277;-81
2022/06/18 06:21:24;;;;;;;11.73;4.95;;;;;;;28.42;24.93;101579.66;4969511;28;20046;-83
2022/06/18 06:23:50;;;;;;;13.13;5.07;;;;;;;28.55;25.16;101581.91;4964222;28;20039;-78
2022/06/18 06:26:24;;;;;;;10.30;4.28;;;;;;;28.46;24.65;101577.50;4951903;28;20049;-86
2022/06/18 06:28:50;;;;;;;13.80;5.03;;;;;;;28.38;25.02;101582.84;4964429;28;20114;-79
2022/06/18 06:31:16;;;;;;;9.23;3.80;;;;;;;29.03;25.27;101571.41;4967401;28;20469;-83
2022/06/18 06:33:42;;;;;;;12.13;4.03;;;;;;;29.15;24.10;101579.03;4953591;28;20095;-81
2022/06/18 06:36:10;;;;;;;7.13;4.07;;;;;;;28.98;23.93;101585.38;4970061;28;20038;-82
2022/06/18 06:38:37;;;;;;;8.18;3.38;;;;;;;29.54;23.41;101570.25;4963233;28;20046;-83
2022/06/18 06:41:10;;;;;;;10.57;4.18;;;;;;;29.91;22.65;101584.19;4967498;28;20027;-81
2022/06/18 06:43:36;;;;;;;7.82;3.92;;;;;;;29.93;22.79;101583.00;4964431;28;20045;-78
2022/06/18 06:46:01;;;;;;;8.05;3.65;;;;;;;30.03;23.65;101590.03;4952776;28;20117;-83
2022/06/18 06:48:27;;;;;;;9.05;3.17;;;;;;;29.69;23.01;101593.84;4971355;28;20043;-85
2022/06/18 06:50:53;;;;;;;8.63;3.67;;;;;;;29.37;23.80;101592.81;4972172;28;20607;-82
2022/06/18 06:53:19;;;;;;;6.63;3.83;;;;;;;29.87;23.40;101580.97;4987685;28;20215;-84
2022/06/18 06:58:29;;;;;;;7.50;3.78;;;;;;;29.14;24.05;101611.47;4973508;28;20078;-79
2022/06/18 07:00:57;;;;;;;8.73;3.75;;;;;;;29.41;24.26;101607.63;4957735;28;20506;-84
2022/06/18 07:03:27;;;;;;;19.10;4.85;;;;;;;28.75;24.32;101607.53;4985425;28;20046;-85
2022/06/18 07:05:54;;;;;;;7.45;4.60;;;;;;;28.18;25.40;101614.50;4977754;28;20038;-83
2022/06/18 07:08:19;;;;;;;8.38;4.05;;;;;;;27.89;25.62;101621.88;4973406;28;20042;-85
2022/06/18 07:10:48;;;;;;;13.93;5.45;;;;;;;27.88;25.68;101614.81;4975879;28;20073;-81
2022/06/18 07:13:14;;;;;;;5.60;3.58;;;;;;;27.97;26.00;101612.19;4974195;28;20454;-83
2022/06/18 07:15:40;;;;;;;11.70;4.55;;;;;;;27.72;25.94;101614.72;4979797;28;20092;-84
2022/06/18 07:18:12;;;;;;;6.95;4.25;;;;;;;27.45;26.37;101623.69;4973490;28;20137;-87
2022/06/18 07:20:38;;;;;;;7.82;3.20;;;;;;;27.09;25.70;101624.56;4983354;28;20070;-82
2022/06/18 07:23:03;;;;;;;7.30;3.85;;;;;;;27.06;25.81;101629.38;4954933;28;20039;-83
2022/06/18 07:25:29;;;;;;;5.68;3.15;;;;;;;27.51;25.43;101623.91;4957274;28;20043;-85
2022/06/18 07:27:54;;;;;;;12.35;4.05;;;;;;;28.34;25.08;101623.50;4970224;28;20059;-83
2022/06/18 07:30:20;;;;;;;9.55;2.88;;;;;;;28.64;23.91;101626.66;4973660;28;20042;-81
2022/06/18 07:32:48;;;;;;;10.32;3.63;;;;;;;28.50;24.17;101635.31;4953517;28;20110;-83
2022/06/18 07:35:20;;;;;;;8.30;3.20;;;;;;;28.13;25.25;101633.81;4981847;28;20035;-82
2022/06/18 07:37:46;;;;;;;12.02;3.67;;;;;;;27.56;25.28;101646.78;4964165;28;20536;-85
2022/06/18 07:40:13;;;;;;;7.55;3.13;;;;;;;27.30;25.53;101645.72;4956319;28;20077;-83
2022/06/18 07:42:38;;;;;;;12.05;3.70;;;;;;;27.97;24.61;101639.91;4984522;28;20053;-82
2022/06/18 07:45:05;;;;;;;8.63;2.25;;;;;;;28.44;24.49;101642.19;4970134;28;20297;-82
2022/06/18 07:47:31;;;;;;;8.13;2.58;;;;;;;28.48;23.89;101640.03;4980244;28;20094;-83
2022/06/18 07:49:56;;;;;;;12.35;3.33;;;;;;;27.75;24.39;101638.56;4968477;28;20403;-81
2022/06/18 07:52:22;;;;;;;9.45;3.10;;;;;;;28.44;24.16;101642.19;4969830;28;20047;-84
2022/06/18 07:54:48;;;;;;;7.53;2.63;;;;;;;28.53;23.93;101640.38;4983660;28;20118;-83
2022/06/18 07:57:13;;;;;;;8.07;3.88;;;;;;;29.09;24.01;101636.19;4967518;28;20109;-82
2022/06/18 07:59:39;;;;;;;6.72;3.00;;;;;;;30.06;22.72;101644.41;4970192;28;20373;-84
2022/06/18 08:02:07;;;;;;;12.45;3.38;;;;;;;30.54;22.71;101648.00;4972858;28;20041;-83
2022/06/18 08:04:32;;;;;;;10.10;3.80;;;;;;;29.93;22.50;101649.50;4971828;28;20038;-85
2022/06/18 08:06:58;;;;;;;5.25;2.40;;;;;;;29.77;23.56;101644.97;4968924;28;20046;-83
2022/06/18 08:09:23;;;;;;;10.02;3.83;;;;;;;30.22;22.24;101643.59;4946584;28;20578;-82
2022/06/18 08:11:50;;;;;;;6.68;3.00;;;;;;;29.90;22.70;101656.06;4966852;28;20074;-84
2022/06/18 08:14:16;;;;;;;8.95;3.40;;;;;;;30.78;21.63;101651.63;4967143;28;20333;-84
2022/06/18 08:16:44;;;;;;;5.50;2.35;;;;;;;31.99;20.57;101637.34;4953664;28;20034;-83
2022/06/18 08:19:09;;;;;;;6.43;2.60;;;;;;;31.58;20.73;101645.84;4968190;28;20121;-85
2022/06/18 08:21:39;;;;;;;6.20;1.98;;;;;;;32.07;20.30;101643.69;4951697;28;20062;-83
2022/06/18 08:24:13;;;;;;;11.73;3.60;;;;;;;31.33;21.96;101644.34;4968758;28;20038;-82
2022/06/18 08:26:40;;;;;;;5.32;1.98;;;;;;;31.66;21.01;101652.19;4969021;28;20480;-83
2022/06/18 08:29:08;;;;;;;9.98;2.85;;;;;;;30.95;22.16;101657.75;4950254;28;20062;-81
2022/06/18 08:31:34;;;;;;;8.70;3.42;;;;;;;31.36;21.48;101665.56;4968517;28;20443;-85
2022/06/18 08:33:59;;;;;;;4.15;3.03;;;;;;;30.34;23.36;101658.34;4967537;28;20042;-83
2022/06/18 08:36:26;;;;;;;8.98;2.72;;;;;;;30.74;22.80;101664.59;4968606;28;20038;-85
2022/06/18 08:38:52;;;;;;;5.68;2.78;;;;;;;31.16;22.71;101668.78;4967147;28;20475;-82
2022/06/18 08:41:31;;;;;;;5.15;2.60;;;;;;;30.69;23.24;101664.31;4965916;28;20042;-82
2022/06/18 08:44:30;;;;;;;7.20;1.90;;;;;;;30.41;23.50;101668.44;4977068;28;20624;-85
2022/06/18 08:47:09;;;;;;;3.58;1.13;;;;;;;30.56;23.22;101674.81;4953392;28;20463;-83
2022/06/18 08:49:53;;;;;;;4.15;1.50;;;;;;;29.54;24.42;101663.66;4982381;28;20039;-84
2022/06/18 08:52:40;;;;;;;3.53;1.63;;;;;;;30.02;24.19;101674.56;4951116;28;20047;-83
2022/06/18 08:55:11;;;;;;;5.30;1.02;;;;;;;30.81;23.38;101675.53;4959763;28;20034;-81
2022/06/18 08:58:01;;;;;;;2.70;0.70;;;;;;;29.55;24.68;101679.66;4963717;28;20051;-82
2022/06/18 09:00:41;;;;;;;2.75;1.02;;;;;;;29.00;25.94;101685.63;4960404;28;20059;-83
2022/06/18 09:03:22;;;;;;;4.72;1.02;;;;;;;30.13;24.39;101672.41;4958932;28;20067;-80
2022/06/18 09:06:06;;;;;;;5.93;1.00;;;;;;;28.88;25.39;101682.38;4965319;28;20039;-83
2022/06/18 09:09:05;;;;;;;3.08;0.80;;;;;;;29.69;24.36;101671.94;4962187;28;20046;-86
2022/06/18 09:11:43;;;;;;;4.75;0.40;;;;;;;29.44;25.14;101671.06;4966669;28;20164;-82
2022/06/18 09:14:24;;;;;;;3.80;0.55;;;;;;;29.66;25.50;101664.19;4949832;28;20070;-84
2022/06/18 09:17:04;;;;;;;2.10;0.55;;;;;;;29.88;24.63;101671.56;4963604;28;20039;-83
2022/06/18 09:19:31;;;;;;;;;;;;;;;30.35;24.03;101670.81;4931022;29;20445;-83
2022/06/18 09:22:00;;;;;;;0.82;0.10;;;;;;;30.41;23.70;101690.03;4944548;28;19918;-82
2022/06/18 09:24:40;;;;;;;4.07;0.50;;;;;;;29.73;24.85;101692.16;4960013;28;20042;-83
2022/06/18 09:27:14;;;;;;;0.47;0.10;;;;;;;29.16;25.26;101696.44;4961112;28;20524;-78
2022/06/18 09:29:51;;;;;;;1.35;0.10;;;;;;;28.79;25.46;101704.91;4965440;28;20480;-82
2022/06/18 09:32:42;;;;;;;0.43;0.10;;;;;;;28.98;25.45;101708.31;4961692;28;20523;-84
2022/06/18 09:35:18;;;;;;;1.52;0.10;;;;;;;29.16;25.30;101693.75;4951078;28;20494;-80
2022/06/18 09:38:06;;;;;;;2.60;0.10;;;;;;;29.62;23.96;101695.16;4977615;28;20131;-83
2022/06/18 09:40:38;;;;;;;0.45;0.13;;;;;;;28.82;25.39;101701.03;4964456;28;20117;-82
2022/06/18 09:43:30;;;;;;;0.80;0.10;;;;;;;27.46;27.04;101700.56;4947478;28;20066;-84
2022/06/18 09:45:59;;;;;;;2.75;0.20;;;;;;;28.27;26.27;101705.75;4964744;28;20027;-79
2022/06/18 09:48:24;;;;;;;1.13;0.10;;;;;;;27.95;26.65;101700.16;4963756;28;20047;-83
2022/06/18 09:50:54;;;;;;;0.30;0.10;;;;;;;26.76;27.59;101701.13;4946162;28;20035;-79
2022/06/18 09:53:30;;;;;;;0.77;0.30;;;;;;;27.07;27.72;101707.03;4949166;28;20039;-80
2022/06/18 09:56:14;;;;;;;0.50;0.10;;;;;;;27.34;27.17;101708.00;4948662;28;20122;-80
2022/06/18 09:58:48;;;;;;;0.30;0.10;;;;;;;26.53;28.15;101705.97;4980014;28;20082;-86
2022/06/18 10:01:17;;;;;;;4.97;0.10;;;;;;;26.23;29.28;101699.88;4979363;28;20045;-82
2022/06/18 10:09:22;;;;;;;0.85;0.38;;;;;;;25.59;30.99;101695.13;4962027;28;20050;-82
2022/06/18 10:11:48;;;;;;;0.40;0.10;;;;;;;26.73;29.85;101703.25;4976774;28;20039;-83
2022/06/18 10:14:20;;;;;;;1.48;0.10;;;;;;;26.85;29.33;101696.72;4967451;28;20048;-81
2022/06/18 10:16:58;;;;;;;0.95;0.17;;;;;;;26.45;29.69;101687.97;4955495;28;20038;-82
2022/06/18 10:19:41;;;;;;;1.02;0.30;;;;;;;26.65;29.00;101691.44;4954251;28;20066;-83
2022/06/18 10:22:25;;;;;;;1.10;0.20;;;;;;;25.26;30.70;101686.47;4947642;28;20061;-81
2022/06/18 10:25:18;;;;;;;0.98;0.20;;;;;;;25.67;30.80;101690.75;4956978;28;20039;-82
2022/06/18 10:27:59;;;;;;;1.83;0.17;;;;;;;26.10;31.03;101691.31;4969300;28;20105;-84
2022/06/18 10:30:36;;;;;;;0.65;0.13;;;;;;;26.20;29.88;101686.78;4967449;28;20146;-78
2022/06/18 10:33:29;;;;;;;1.02;0.17;;;;;;;25.90;29.46;101689.63;4964489;28;20035;-81
2022/06/18 10:36:14;;;;;;;3.42;0.20;;;;;;;25.61;30.19;101702.03;4966556;28;20031;-83
2022/06/18 10:38:57;;;;;;;1.50;0.40;;;;;;;25.24;31.50;101700.00;4970546;28;20054;-82
2022/06/18 10:41:28;;;;;;;3.28;0.98;;;;;;;24.22;32.90;101702.66;4973966;28;20038;-84
2022/06/18 10:44:15;;;;;;;5.40;0.53;;;;;;;24.97;31.49;101702.47;4963065;28;20054;-83
2022/06/18 10:46:41;;;;;;;1.90;0.38;;;;;;;25.36;30.18;101698.03;4967210;28;20409;-78
2022/06/18 10:49:07;;;;;;;1.02;0.40;;;;;;;24.48;31.44;101706.75;4952660;28;20135;-82
2022/06/18 10:51:48;;;;;;;3.53;0.40;;;;;;;25.55;31.09;101707.09;4970345;28;20173;-84
2022/06/18 10:54:15;;;;;;;3.10;0.30;;;;;;;24.76;31.97;101700.69;4970066;28;20050;-84
2022/06/18 10:56:51;;;;;;;1.98;0.60;;;;;;;23.85;32.88;101688.03;4974531;28;20039;-82
2022/06/18 10:59:30;;;;;;;1.58;0.35;;;;;;;23.80;33.33;101691.94;4970580;28;20042;-81
2022/06/18 11:02:04;;;;;;;2.67;0.32;;;;;;;23.61;33.78;101687.28;4952054;28;20204;-82
2022/06/18 11:04:31;;;;;;;3.35;0.40;;;;;;;24.71;30.88;101678.03;4984889;28;20061;-80
2022/06/18 11:07:03;;;;;;;1.42;0.20;;;;;;;24.43;31.05;101677.75;4983253;28;20035;-85
2022/06/18 11:09:31;;;;;;;1.90;0.10;;;;;;;24.05;32.37;101678.38;4983712;28;20047;-82
2022/06/18 11:12:01;;;;;;;4.07;0.68;;;;;;;24.00;32.73;101686.75;4980938;28;20038;-83
2022/06/18 11:14:31;;;;;;;2.40;0.22;;;;;;;24.50;31.47;101678.91;4968652;28;20302;-81
2022/06/18 11:16:58;;;;;;;1.63;0.20;;;;;;;24.42;31.84;101689.44;4976109;28;20065;-81
2022/06/18 11:19:34;;;;;;;1.17;0.80;;;;;;;24.21;31.87;101695.63;4965252;28;20400;-83
2022/06/18 11:22:29;;;;;;;1.25;0.25;;;;;;;25.02;30.22;101665.47;4945115;28;20480;-84
2022/06/18 11:24:58;;;;;;;3.45;0.20;;;;;;;24.63;30.28;101671.50;4946734;28;20049;-80
2022/06/18 11:27:29;;;;;;;0.22;0.13;;;;;;;23.81;29.99;101666.94;4965756;28;20547;-82
2022/06/18 11:29:55;;;;;;;0.80;0.13;;;;;;;24.08;31.11;101676.28;4971498;28;20038;-81
2022/06/18 11:32:26;;;;;;;2.10;0.10;;;;;;;24.57;30.79;101679.22;4962048;28;20047;-83
2022/06/18 11:35:15;;;;;;;1.67;0.10;;;;;;;24.37;29.95;101672.91;4984353;28;20038;-82
2022/06/18 11:37:43;;;;;;;0.63;0.10;;;;;;;24.58;30.30;101676.41;4964333;28;20550;-85
2022/06/18 11:40:11;;;;;;;0.93;0.20;;;;;;;24.53;30.11;101688.50;4985282;28;20050;-82
2022/06/18 11:42:47;;;;;;;1.33;0.10;;;;;;;25.13;28.72;101699.25;4946945;28;20390;-85
2022/06/18 11:45:19;;;;;;;1.13;0.10;;;;;;;25.81;29.40;101685.97;4956482;28;20026;-87
2022/06/18 11:47:49;;;;;;;;;;;;;;;25.45;28.30;101685.66;4964297;28;20050;-82
2022/06/18 11:50:33;;;;;;;0.73;0.20;;;;;;;24.35;30.73;101674.91;4988955;28;19914;-82
2022/06/18 11:53:05;;;;;;;2.30;0.30;;;;;;;24.64;31.27;101683.91;4971514;28;20037;-83
2022/06/18 11:55:43;;;;;;;0.57;0.30;;;;;;;24.81;28.62;101687.75;4975388;28;20097;-85
2022/06/18 11:58:34;;;;;;;15.15;7.07;;;;;;;25.02;29.36;101690.38;4974045;28;20069;-86